sensor_id;sensor_type;location;lat;lon;timestamp;P1;durP1;ratioP1;P2;durP2;ratioP2
75885;SDS011;64561;44.018;10.144;2023-06-19T00:02:09;10.55;;;6.85;;
75885;SDS011;64561;44.018;10.144;2023-06-19T00:04:36;8.57;;;7.15;;
75885;SDS011;64561;44.018;10.144;2023-06-19T00:07:03;7.55;;;6.78;;
75885;SDS011;64561;44.018;10.144;2023-06-19T00:09:31;10.80;;;6.60;;
75885;SDS011;64561;44.018;10.144;2023-06-19T00:11:59;9.90;;;7.07;;
75885;SDS011;64561;44.018;10.144;2023-06-19T00:14:27;7.72;;;6.10;;
75885;SDS011;64561;44.018;10.144;2023-06-19T00:16:55;8.80;;;7.28;;
75885;SDS011;64561;44.018;10.144;2023-06-19T00:19:22;8.30;;;6.22;;
75885;SDS011;64561;44.018;10.144;2023-06-19T00:21:50;10.85;;;7.63;;
75885;SDS011;64561;44.018;10.144;2023-06-19T00:24:16;8.98;;;7.35;;
75885;SDS011;64561;44.018;10.144;2023-06-19T00:26:43;10.48;;;6.97;;
75885;SDS011;64561;44.018;10.144;2023-06-19T00:29:11;12.82;;;6.95;;
75885;SDS011;64561;44.018;10.144;2023-06-19T00:31:38;9.48;;;7.30;;
75885;SDS011;64561;44.018;10.144;2023-06-19T00:34:05;8.65;;;7.25;;
75885;SDS011;64561;44.018;10.144;2023-06-19T00:36:33;11.45;;;6.95;;
75885;SDS011;64561;44.018;10.144;2023-06-19T00:39:07;11.93;;;8.25;;
75885;SDS011;64561;44.018;10.144;2023-06-19T00:41:35;10.63;;;8.77;;
75885;SDS011;64561;44.018;10.144;2023-06-19T00:44:02;11.15;;;7.57;;
75885;SDS011;64561;44.018;10.144;2023-06-19T00:46:29;9.90;;;7.30;;
75885;SDS011;64561;44.018;10.144;2023-06-19T00:48:57;10.80;;;6.38;;
75885;SDS011;64561;44.018;10.144;2023-06-19T00:51:24;12.02;;;7.32;;
75885;SDS011;64561;44.018;10.144;2023-06-19T00:53:51;11.35;;;7.65;;
75885;SDS011;64561;44.018;10.144;2023-06-19T00:56:19;10.50;;;7.68;;
75885;SDS011;64561;44.018;10.144;2023-06-19T00:58:46;9.40;;;7.32;;
75885;SDS011;64561;44.018;10.144;2023-06-19T01:01:14;9.98;;;6.88;;
75885;SDS011;64561;44.018;10.144;2023-06-19T01:03:41;9.00;;;7.15;;
75885;SDS011;64561;44.018;10.144;2023-06-19T01:06:11;11.38;;;7.10;;
75885;SDS011;64561;44.018;10.144;2023-06-19T01:11:31;7.30;;;6.55;;
75885;SDS011;64561;44.018;10.144;2023-06-19T01:14:25;8.18;;;6.90;;
75885;SDS011;64561;44.018;10.144;2023-06-19T01:16:54;9.85;;;7.05;;
75885;SDS011;64561;44.018;10.144;2023-06-19T01:19:24;9.30;;;6.95;;
75885;SDS011;64561;44.018;10.144;2023-06-19T01:21:52;8.65;;;6.80;;
75885;SDS011;64561;44.018;10.144;2023-06-19T01:24:19;9.07;;;7.05;;
75885;SDS011;64561;44.018;10.144;2023-06-19T01:26:47;8.52;;;6.97;;
75885;SDS011;64561;44.018;10.144;2023-06-19T01:29:14;9.85;;;6.82;;
75885;SDS011;64561;44.018;10.144;2023-06-19T01:31:52;8.30;;;6.57;;
75885;SDS011;64561;44.018;10.144;2023-06-19T01:34:26;10.07;;;7.03;;
75885;SDS011;64561;44.018;10.144;2023-06-19T01:36:56;9.82;;;7.55;;
75885;SDS011;64561;44.018;10.144;2023-06-19T01:39:24;9.13;;;7.22;;
75885;SDS011;64561;44.018;10.144;2023-06-19T01:41:52;8.60;;;6.80;;
75885;SDS011;64561;44.018;10.144;2023-06-19T01:44:21;7.43;;;6.40;;
75885;SDS011;64561;44.018;10.144;2023-06-19T01:46:49;8.45;;;5.97;;
75885;SDS011;64561;44.018;10.144;2023-06-19T01:49:17;8.98;;;6.68;;
75885;SDS011;64561;44.018;10.144;2023-06-19T01:51:45;10.85;;;6.90;;
75885;SDS011;64561;44.018;10.144;2023-06-19T01:54:12;9.02;;;7.55;;
75885;SDS011;64561;44.018;10.144;2023-06-19T01:56:39;9.73;;;6.72;;
75885;SDS011;64561;44.018;10.144;2023-06-19T01:59:06;10.38;;;7.47;;
75885;SDS011;64561;44.018;10.144;2023-06-19T02:01:33;10.48;;;6.70;;
75885;SDS011;64561;44.018;10.144;2023-06-19T02:04:01;9.60;;;6.25;;
75885;SDS011;64561;44.018;10.144;2023-06-19T02:06:29;8.00;;;6.30;;
75885;SDS011;64561;44.018;10.144;2023-06-19T02:08:57;8.95;;;6.28;;
75885;SDS011;64561;44.018;10.144;2023-06-19T02:11:24;8.02;;;6.07;;
75885;SDS011;64561;44.018;10.144;2023-06-19T02:13:53;7.38;;;5.32;;
75885;SDS011;64561;44.018;10.144;2023-06-19T02:16:20;8.18;;;6.30;;
75885;SDS011;64561;44.018;10.144;2023-06-19T02:18:48;7.60;;;5.60;;
75885;SDS011;64561;44.018;10.144;2023-06-19T02:21:15;6.70;;;5.70;;
75885;SDS011;64561;44.018;10.144;2023-06-19T02:23:42;9.48;;;6.10;;
75885;SDS011;64561;44.018;10.144;2023-06-19T02:26:09;7.97;;;6.15;;
75885;SDS011;64561;44.018;10.144;2023-06-19T02:28:37;9.68;;;6.70;;
75885;SDS011;64561;44.018;10.144;2023-06-19T02:31:05;7.55;;;6.05;;
75885;SDS011;64561;44.018;10.144;2023-06-19T02:33:32;8.98;;;6.63;;
75885;SDS011;64561;44.018;10.144;2023-06-19T02:35:59;8.35;;;7.07;;
75885;SDS011;64561;44.018;10.144;2023-06-19T02:38:26;8.20;;;5.68;;
75885;SDS011;64561;44.018;10.144;2023-06-19T02:40:53;7.68;;;6.47;;
75885;SDS011;64561;44.018;10.144;2023-06-19T02:43:20;7.25;;;5.82;;
75885;SDS011;64561;44.018;10.144;2023-06-19T02:45:47;8.27;;;6.78;;
75885;SDS011;64561;44.018;10.144;2023-06-19T02:48:14;8.15;;;6.35;;
75885;SDS011;64561;44.018;10.144;2023-06-19T02:50:41;7.88;;;5.82;;
75885;SDS011;64561;44.018;10.144;2023-06-19T02:53:08;9.80;;;6.63;;
75885;SDS011;64561;44.018;10.144;2023-06-19T02:55:35;7.90;;;7.07;;
75885;SDS011;64561;44.018;10.144;2023-06-19T02:58:02;8.77;;;6.10;;
75885;SDS011;64561;44.018;10.144;2023-06-19T03:00:29;7.40;;;6.10;;
75885;SDS011;64561;44.018;10.144;2023-06-19T03:02:57;7.13;;;6.15;;
75885;SDS011;64561;44.018;10.144;2023-06-19T03:05:26;7.20;;;5.93;;
75885;SDS011;64561;44.018;10.144;2023-06-19T03:07:56;8.18;;;6.35;;
75885;SDS011;64561;44.018;10.144;2023-06-19T03:10:23;7.03;;;5.53;;
75885;SDS011;64561;44.018;10.144;2023-06-19T03:12:50;8.52;;;6.60;;
75885;SDS011;64561;44.018;10.144;2023-06-19T03:15:17;9.18;;;6.05;;
75885;SDS011;64561;44.018;10.144;2023-06-19T03:17:48;12.32;;;7.00;;
75885;SDS011;64561;44.018;10.144;2023-06-19T03:20:17;8.05;;;6.25;;
75885;SDS011;64561;44.018;10.144;2023-06-19T03:22:52;10.80;;;6.40;;
75885;SDS011;64561;44.018;10.144;2023-06-19T03:25:20;8.07;;;6.60;;
75885;SDS011;64561;44.018;10.144;2023-06-19T03:27:47;7.18;;;6.45;;
75885;SDS011;64561;44.018;10.144;2023-06-19T03:30:14;7.65;;;6.45;;
75885;SDS011;64561;44.018;10.144;2023-06-19T03:32:47;7.85;;;6.82;;
75885;SDS011;64561;44.018;10.144;2023-06-19T03:35:31;9.35;;;6.13;;
75885;SDS011;64561;44.018;10.144;2023-06-19T03:37:59;9.57;;;6.90;;
75885;SDS011;64561;44.018;10.144;2023-06-19T03:40:27;9.30;;;6.70;;
75885;SDS011;64561;44.018;10.144;2023-06-19T03:43:09;10.45;;;6.80;;
75885;SDS011;64561;44.018;10.144;2023-06-19T03:45:40;9.25;;;7.25;;
75885;SDS011;64561;44.018;10.144;2023-06-19T03:48:07;11.23;;;7.93;;
75885;SDS011;64561;44.018;10.144;2023-06-19T03:50:34;13.25;;;9.38;;
75885;SDS011;64561;44.018;10.144;2023-06-19T03:53:02;13.68;;;11.73;;
75885;SDS011;64561;44.018;10.144;2023-06-19T03:55:30;12.85;;;9.98;;
75885;SDS011;64561;44.018;10.144;2023-06-19T03:57:57;14.32;;;10.15;;
75885;SDS011;64561;44.018;10.144;2023-06-19T04:00:24;12.88;;;9.73;;
75885;SDS011;64561;44.018;10.144;2023-06-19T04:02:51;11.65;;;9.98;;
75885;SDS011;64561;44.018;10.144;2023-06-19T04:05:19;13.20;;;9.98;;
75885;SDS011;64561;44.018;10.144;2023-06-19T04:07:48;11.05;;;9.75;;
75885;SDS011;64561;44.018;10.144;2023-06-19T04:10:15;10.38;;;9.18;;
75885;SDS011;64561;44.018;10.144;2023-06-19T04:12:43;11.52;;;9.15;;
75885;SDS011;64561;44.018;10.144;2023-06-19T04:15:12;11.90;;;9.77;;
75885;SDS011;64561;44.018;10.144;2023-06-19T04:17:39;10.77;;;8.75;;
75885;SDS011;64561;44.018;10.144;2023-06-19T04:20:08;12.50;;;8.38;;
75885;SDS011;64561;44.018;10.144;2023-06-19T04:22:39;10.10;;;7.80;;
75885;SDS011;64561;44.018;10.144;2023-06-19T04:25:07;10.02;;;8.10;;
75885;SDS011;64561;44.018;10.144;2023-06-19T04:27:37;8.10;;;7.13;;
75885;SDS011;64561;44.018;10.144;2023-06-19T04:30:04;8.55;;;7.55;;
75885;SDS011;64561;44.018;10.144;2023-06-19T04:32:33;8.70;;;6.72;;
75885;SDS011;64561;44.018;10.144;2023-06-19T04:35:08;8.02;;;6.85;;
75885;SDS011;64561;44.018;10.144;2023-06-19T04:37:35;10.85;;;6.72;;
75885;SDS011;64561;44.018;10.144;2023-06-19T04:40:02;9.38;;;6.80;;
75885;SDS011;64561;44.018;10.144;2023-06-19T04:42:34;8.63;;;6.78;;
75885;SDS011;64561;44.018;10.144;2023-06-19T04:45:01;8.32;;;6.47;;
75885;SDS011;64561;44.018;10.144;2023-06-19T04:47:29;9.05;;;7.10;;
75885;SDS011;64561;44.018;10.144;2023-06-19T04:50:16;10.13;;;7.32;;
75885;SDS011;64561;44.018;10.144;2023-06-19T04:52:43;7.95;;;6.72;;
75885;SDS011;64561;44.018;10.144;2023-06-19T04:55:10;10.18;;;7.18;;
75885;SDS011;64561;44.018;10.144;2023-06-19T04:57:37;7.65;;;5.88;;
75885;SDS011;64561;44.018;10.144;2023-06-19T05:00:05;11.38;;;7.38;;
75885;SDS011;64561;44.018;10.144;2023-06-19T05:02:33;9.93;;;6.68;;
75885;SDS011;64561;44.018;10.144;2023-06-19T05:05:00;11.10;;;8.13;;
75885;SDS011;64561;44.018;10.144;2023-06-19T05:07:31;11.82;;;7.80;;
75885;SDS011;64561;44.018;10.144;2023-06-19T05:09:58;11.38;;;7.53;;
75885;SDS011;64561;44.018;10.144;2023-06-19T05:12:25;11.40;;;7.90;;
75885;SDS011;64561;44.018;10.144;2023-06-19T05:14:53;8.30;;;6.93;;
75885;SDS011;64561;44.018;10.144;2023-06-19T05:17:20;10.00;;;7.80;;
75885;SDS011;64561;44.018;10.144;2023-06-19T05:19:47;10.40;;;7.65;;
75885;SDS011;64561;44.018;10.144;2023-06-19T05:22:15;8.98;;;7.07;;
75885;SDS011;64561;44.018;10.144;2023-06-19T05:24:42;9.52;;;7.20;;
75885;SDS011;64561;44.018;10.144;2023-06-19T05:27:09;8.25;;;6.65;;
75885;SDS011;64561;44.018;10.144;2023-06-19T05:29:36;7.32;;;6.07;;
75885;SDS011;64561;44.018;10.144;2023-06-19T05:32:03;9.43;;;7.50;;
75885;SDS011;64561;44.018;10.144;2023-06-19T05:34:30;9.10;;;6.68;;
75885;SDS011;64561;44.018;10.144;2023-06-19T05:36:58;8.85;;;6.70;;
75885;SDS011;64561;44.018;10.144;2023-06-19T05:39:27;9.55;;;6.90;;
75885;SDS011;64561;44.018;10.144;2023-06-19T05:41:54;11.85;;;7.25;;
75885;SDS011;64561;44.018;10.144;2023-06-19T05:44:21;7.45;;;6.63;;
75885;SDS011;64561;44.018;10.144;2023-06-19T05:46:48;12.27;;;6.70;;
75885;SDS011;64561;44.018;10.144;2023-06-19T05:49:15;9.48;;;7.07;;
75885;SDS011;64561;44.018;10.144;2023-06-19T05:51:42;9.48;;;6.80;;
75885;SDS011;64561;44.018;10.144;2023-06-19T05:54:10;8.50;;;6.50;;
75885;SDS011;64561;44.018;10.144;2023-06-19T05:56:37;8.52;;;5.93;;
75885;SDS011;64561;44.018;10.144;2023-06-19T05:59:04;11.95;;;7.57;;
75885;SDS011;64561;44.018;10.144;2023-06-19T06:01:31;10.13;;;7.88;;
75885;SDS011;64561;44.018;10.144;2023-06-19T06:04:01;16.08;;;10.63;;
75885;SDS011;64561;44.018;10.144;2023-06-19T06:06:28;12.07;;;10.02;;
75885;SDS011;64561;44.018;10.144;2023-06-19T06:08:55;13.63;;;10.32;;
75885;SDS011;64561;44.018;10.144;2023-06-19T06:11:22;11.68;;;9.15;;
75885;SDS011;64561;44.018;10.144;2023-06-19T06:13:49;8.45;;;7.55;;
75885;SDS011;64561;44.018;10.144;2023-06-19T06:16:17;11.98;;;8.93;;
75885;SDS011;64561;44.018;10.144;2023-06-19T06:18:44;12.18;;;8.40;;
75885;SDS011;64561;44.018;10.144;2023-06-19T06:21:12;14.30;;;8.88;;
75885;SDS011;64561;44.018;10.144;2023-06-19T06:23:43;12.68;;;8.98;;
75885;SDS011;64561;44.018;10.144;2023-06-19T06:26:11;10.63;;;9.00;;
75885;SDS011;64561;44.018;10.144;2023-06-19T06:28:38;9.02;;;7.70;;
75885;SDS011;64561;44.018;10.144;2023-06-19T06:31:06;11.10;;;7.45;;
75885;SDS011;64561;44.018;10.144;2023-06-19T06:33:34;12.23;;;7.80;;
75885;SDS011;64561;44.018;10.144;2023-06-19T06:36:01;9.13;;;6.78;;
75885;SDS011;64561;44.018;10.144;2023-06-19T06:38:28;15.93;;;7.82;;
75885;SDS011;64561;44.018;10.144;2023-06-19T06:40:55;10.40;;;8.30;;
75885;SDS011;64561;44.018;10.144;2023-06-19T06:43:22;14.63;;;9.70;;
75885;SDS011;64561;44.018;10.144;2023-06-19T06:45:49;11.45;;;8.10;;
75885;SDS011;64561;44.018;10.144;2023-06-19T06:48:16;10.68;;;7.50;;
75885;SDS011;64561;44.018;10.144;2023-06-19T06:50:44;8.90;;;7.07;;
75885;SDS011;64561;44.018;10.144;2023-06-19T06:53:11;8.25;;;6.65;;
75885;SDS011;64561;44.018;10.144;2023-06-19T06:55:38;11.60;;;6.80;;
75885;SDS011;64561;44.018;10.144;2023-06-19T06:58:04;11.68;;;6.90;;
75885;SDS011;64561;44.018;10.144;2023-06-19T07:00:32;8.43;;;6.85;;
75885;SDS011;64561;44.018;10.144;2023-06-19T07:02:59;7.43;;;6.07;;
75885;SDS011;64561;44.018;10.144;2023-06-19T07:05:26;6.93;;;5.30;;
75885;SDS011;64561;44.018;10.144;2023-06-19T07:07:55;8.93;;;6.20;;
75885;SDS011;64561;44.018;10.144;2023-06-19T07:10:22;7.25;;;5.15;;
75885;SDS011;64561;44.018;10.144;2023-06-19T07:12:50;8.30;;;5.20;;
75885;SDS011;64561;44.018;10.144;2023-06-19T07:15:18;6.95;;;6.07;;
75885;SDS011;64561;44.018;10.144;2023-06-19T07:17:46;7.28;;;5.65;;
75885;SDS011;64561;44.018;10.144;2023-06-19T07:20:14;9.93;;;6.03;;
75885;SDS011;64561;44.018;10.144;2023-06-19T07:22:42;8.35;;;5.93;;
75885;SDS011;64561;44.018;10.144;2023-06-19T07:25:10;7.47;;;5.75;;
75885;SDS011;64561;44.018;10.144;2023-06-19T07:27:39;9.88;;;6.18;;
75885;SDS011;64561;44.018;10.144;2023-06-19T07:30:07;8.98;;;6.75;;
75885;SDS011;64561;44.018;10.144;2023-06-19T07:32:34;7.22;;;5.80;;
75885;SDS011;64561;44.018;10.144;2023-06-19T07:35:02;8.02;;;6.82;;
75885;SDS011;64561;44.018;10.144;2023-06-19T07:37:29;8.82;;;6.82;;
75885;SDS011;64561;44.018;10.144;2023-06-19T07:39:56;9.02;;;6.10;;
75885;SDS011;64561;44.018;10.144;2023-06-19T07:42:23;11.63;;;6.70;;
75885;SDS011;64561;44.018;10.144;2023-06-19T07:44:50;10.00;;;6.63;;
75885;SDS011;64561;44.018;10.144;2023-06-19T07:47:17;9.65;;;6.30;;
75885;SDS011;64561;44.018;10.144;2023-06-19T07:49:45;10.43;;;7.35;;
75885;SDS011;64561;44.018;10.144;2023-06-19T07:52:12;9.80;;;6.70;;
75885;SDS011;64561;44.018;10.144;2023-06-19T07:54:53;9.27;;;6.68;;
75885;SDS011;64561;44.018;10.144;2023-06-19T07:57:22;9.65;;;6.68;;
75885;SDS011;64561;44.018;10.144;2023-06-19T07:59:50;9.48;;;6.72;;
75885;SDS011;64561;44.018;10.144;2023-06-19T08:02:18;11.20;;;7.93;;
75885;SDS011;64561;44.018;10.144;2023-06-19T08:04:46;8.45;;;6.60;;
75885;SDS011;64561;44.018;10.144;2023-06-19T08:07:13;8.40;;;6.40;;
75885;SDS011;64561;44.018;10.144;2023-06-19T08:09:40;8.68;;;6.80;;
75885;SDS011;64561;44.018;10.144;2023-06-19T08:12:07;9.70;;;6.57;;
75885;SDS011;64561;44.018;10.144;2023-06-19T08:14:34;9.38;;;6.97;;
75885;SDS011;64561;44.018;10.144;2023-06-19T08:17:01;9.05;;;7.43;;
75885;SDS011;64561;44.018;10.144;2023-06-19T08:19:29;9.38;;;6.40;;
75885;SDS011;64561;44.018;10.144;2023-06-19T08:21:56;8.25;;;6.20;;
75885;SDS011;64561;44.018;10.144;2023-06-19T08:24:23;13.50;;;8.98;;
75885;SDS011;64561;44.018;10.144;2023-06-19T08:26:50;9.40;;;6.93;;
75885;SDS011;64561;44.018;10.144;2023-06-19T08:29:18;12.93;;;7.32;;
75885;SDS011;64561;44.018;10.144;2023-06-19T08:31:45;11.13;;;7.30;;
75885;SDS011;64561;44.018;10.144;2023-06-19T08:34:12;8.18;;;6.55;;
75885;SDS011;64561;44.018;10.144;2023-06-19T08:36:40;9.43;;;6.72;;
75885;SDS011;64561;44.018;10.144;2023-06-19T08:39:07;8.57;;;7.07;;
75885;SDS011;64561;44.018;10.144;2023-06-19T08:41:38;10.30;;;7.72;;
75885;SDS011;64561;44.018;10.144;2023-06-19T08:44:05;8.32;;;6.70;;
75885;SDS011;64561;44.018;10.144;2023-06-19T08:46:34;10.68;;;7.30;;
75885;SDS011;64561;44.018;10.144;2023-06-19T08:49:03;10.05;;;7.22;;
75885;SDS011;64561;44.018;10.144;2023-06-19T08:51:32;8.48;;;6.38;;
75885;SDS011;64561;44.018;10.144;2023-06-19T08:54:04;7.68;;;6.47;;
75885;SDS011;64561;44.018;10.144;2023-06-19T08:56:33;11.10;;;7.40;;
75885;SDS011;64561;44.018;10.144;2023-06-19T08:59:12;12.10;;;7.22;;
75885;SDS011;64561;44.018;10.144;2023-06-19T09:01:40;8.13;;;6.50;;
75885;SDS011;64561;44.018;10.144;2023-06-19T09:04:27;8.60;;;6.68;;
75885;SDS011;64561;44.018;10.144;2023-06-19T09:06:59;11.30;;;7.68;;
75885;SDS011;64561;44.018;10.144;2023-06-19T09:09:31;11.27;;;7.43;;
75885;SDS011;64561;44.018;10.144;2023-06-19T09:12:00;9.23;;;6.75;;
75885;SDS011;64561;44.018;10.144;2023-06-19T09:17:03;7.63;;;6.65;;
75885;SDS011;64561;44.018;10.144;2023-06-19T09:19:32;10.55;;;7.00;;
75885;SDS011;64561;44.018;10.144;2023-06-19T09:22:02;7.20;;;5.63;;
75885;SDS011;64561;44.018;10.144;2023-06-19T09:24:36;7.22;;;5.88;;
75885;SDS011;64561;44.018;10.144;2023-06-19T09:27:08;7.43;;;5.32;;
75885;SDS011;64561;44.018;10.144;2023-06-19T09:29:40;7.35;;;5.53;;
75885;SDS011;64561;44.018;10.144;2023-06-19T09:34:41;7.82;;;4.80;;
75885;SDS011;64561;44.018;10.144;2023-06-19T09:37:09;6.97;;;4.47;;
75885;SDS011;64561;44.018;10.144;2023-06-19T09:39:37;7.20;;;4.07;;
75885;SDS011;64561;44.018;10.144;2023-06-19T09:42:08;9.02;;;5.43;;
75885;SDS011;64561;44.018;10.144;2023-06-19T09:44:40;6.00;;;4.40;;
75885;SDS011;64561;44.018;10.144;2023-06-19T09:47:21;6.88;;;5.03;;
75885;SDS011;64561;44.018;10.144;2023-06-19T09:49:54;5.10;;;4.38;;
75885;SDS011;64561;44.018;10.144;2023-06-19T09:52:22;5.82;;;4.43;;
75885;SDS011;64561;44.018;10.144;2023-06-19T09:57:29;5.65;;;4.93;;
75885;SDS011;64561;44.018;10.144;2023-06-19T09:59:56;6.18;;;5.10;;
75885;SDS011;64561;44.018;10.144;2023-06-19T10:02:41;7.03;;;4.75;;
75885;SDS011;64561;44.018;10.144;2023-06-19T10:05:10;7.65;;;4.30;;
75885;SDS011;64561;44.018;10.144;2023-06-19T10:07:43;5.90;;;4.63;;
75885;SDS011;64561;44.018;10.144;2023-06-19T10:10:12;5.40;;;4.55;;
75885;SDS011;64561;44.018;10.144;2023-06-19T10:12:50;6.63;;;4.90;;
75885;SDS011;64561;44.018;10.144;2023-06-19T10:15:22;6.50;;;4.85;;
75885;SDS011;64561;44.018;10.144;2023-06-19T10:22:53;8.23;;;4.60;;
75885;SDS011;64561;44.018;10.144;2023-06-19T10:25:26;5.38;;;4.80;;
75885;SDS011;64561;44.018;10.144;2023-06-19T10:27:55;6.85;;;4.95;;
75885;SDS011;64561;44.018;10.144;2023-06-19T10:30:22;6.93;;;4.47;;
75885;SDS011;64561;44.018;10.144;2023-06-19T10:32:49;5.20;;;4.70;;
75885;SDS011;64561;44.018;10.144;2023-06-19T10:35:17;5.30;;;4.57;;
75885;SDS011;64561;44.018;10.144;2023-06-19T10:37:47;7.07;;;5.10;;
75885;SDS011;64561;44.018;10.144;2023-06-19T10:40:16;7.10;;;4.88;;
75885;SDS011;64561;44.018;10.144;2023-06-19T10:42:44;8.75;;;4.63;;
75885;SDS011;64561;44.018;10.144;2023-06-19T10:45:12;6.15;;;4.65;;
75885;SDS011;64561;44.018;10.144;2023-06-19T10:47:43;5.97;;;4.70;;
75885;SDS011;64561;44.018;10.144;2023-06-19T10:50:11;5.90;;;5.30;;
75885;SDS011;64561;44.018;10.144;2023-06-19T10:52:43;7.25;;;5.30;;
75885;SDS011;64561;44.018;10.144;2023-06-19T10:55:12;8.00;;;4.93;;
75885;SDS011;64561;44.018;10.144;2023-06-19T10:57:40;7.78;;;5.35;;
75885;SDS011;64561;44.018;10.144;2023-06-19T11:00:11;6.80;;;5.28;;
75885;SDS011;64561;44.018;10.144;2023-06-19T11:02:49;6.57;;;5.50;;
75885;SDS011;64561;44.018;10.144;2023-06-19T11:05:16;6.78;;;5.45;;
75885;SDS011;64561;44.018;10.144;2023-06-19T11:10:24;8.30;;;6.32;;
75885;SDS011;64561;44.018;10.144;2023-06-19T11:12:55;7.35;;;5.88;;
75885;SDS011;64561;44.018;10.144;2023-06-19T11:15:30;7.18;;;5.93;;
75885;SDS011;64561;44.018;10.144;2023-06-19T11:18:01;6.88;;;4.78;;
75885;SDS011;64561;44.018;10.144;2023-06-19T11:20:29;5.75;;;5.05;;
75885;SDS011;64561;44.018;10.144;2023-06-19T11:22:57;5.88;;;4.45;;
75885;SDS011;64561;44.018;10.144;2023-06-19T11:25:39;5.65;;;4.47;;
75885;SDS011;64561;44.018;10.144;2023-06-19T11:28:10;5.43;;;4.10;;
75885;SDS011;64561;44.018;10.144;2023-06-19T11:30:40;5.95;;;4.47;;
75885;SDS011;64561;44.018;10.144;2023-06-19T11:33:19;5.75;;;4.15;;
75885;SDS011;64561;44.018;10.144;2023-06-19T11:35:50;7.03;;;4.75;;
75885;SDS011;64561;44.018;10.144;2023-06-19T11:38:22;5.85;;;3.80;;
75885;SDS011;64561;44.018;10.144;2023-06-19T11:40:52;4.60;;;3.72;;
75885;SDS011;64561;44.018;10.144;2023-06-19T11:43:31;5.40;;;3.97;;
75885;SDS011;64561;44.018;10.144;2023-06-19T11:46:05;7.50;;;4.32;;
75885;SDS011;64561;44.018;10.144;2023-06-19T11:48:37;5.32;;;3.83;;
75885;SDS011;64561;44.018;10.144;2023-06-19T11:51:05;4.72;;;3.90;;
75885;SDS011;64561;44.018;10.144;2023-06-19T11:53:34;5.00;;;3.75;;
75885;SDS011;64561;44.018;10.144;2023-06-19T11:56:01;5.10;;;4.05;;
75885;SDS011;64561;44.018;10.144;2023-06-19T11:58:28;7.10;;;4.10;;
75885;SDS011;64561;44.018;10.144;2023-06-19T12:00:55;7.32;;;4.32;;
75885;SDS011;64561;44.018;10.144;2023-06-19T12:03:23;5.40;;;4.00;;
75885;SDS011;64561;44.018;10.144;2023-06-19T12:05:50;6.50;;;4.03;;
75885;SDS011;64561;44.018;10.144;2023-06-19T12:08:17;5.97;;;3.95;;
75885;SDS011;64561;44.018;10.144;2023-06-19T12:10:44;6.80;;;4.47;;
75885;SDS011;64561;44.018;10.144;2023-06-19T12:13:11;9.27;;;4.22;;
75885;SDS011;64561;44.018;10.144;2023-06-19T12:15:38;4.57;;;3.78;;
75885;SDS011;64561;44.018;10.144;2023-06-19T12:18:05;4.22;;;3.63;;
75885;SDS011;64561;44.018;10.144;2023-06-19T12:20:34;5.97;;;4.13;;
75885;SDS011;64561;44.018;10.144;2023-06-19T12:23:01;5.15;;;4.22;;
75885;SDS011;64561;44.018;10.144;2023-06-19T12:25:30;6.22;;;4.03;;
75885;SDS011;64561;44.018;10.144;2023-06-19T12:27:58;5.75;;;4.38;;
75885;SDS011;64561;44.018;10.144;2023-06-19T12:30:25;5.85;;;4.07;;
75885;SDS011;64561;44.018;10.144;2023-06-19T12:32:52;4.55;;;4.05;;
75885;SDS011;64561;44.018;10.144;2023-06-19T12:35:19;6.55;;;4.18;;
75885;SDS011;64561;44.018;10.144;2023-06-19T12:37:47;8.10;;;4.25;;
75885;SDS011;64561;44.018;10.144;2023-06-19T12:40:14;4.78;;;3.90;;
75885;SDS011;64561;44.018;10.144;2023-06-19T12:42:43;5.78;;;4.32;;
75885;SDS011;64561;44.018;10.144;2023-06-19T12:45:10;5.38;;;4.10;;
75885;SDS011;64561;44.018;10.144;2023-06-19T12:47:38;6.43;;;3.92;;
75885;SDS011;64561;44.018;10.144;2023-06-19T12:50:05;5.28;;;3.92;;
75885;SDS011;64561;44.018;10.144;2023-06-19T12:52:32;6.72;;;4.05;;
75885;SDS011;64561;44.018;10.144;2023-06-19T12:54:59;6.20;;;4.00;;
75885;SDS011;64561;44.018;10.144;2023-06-19T12:57:28;6.25;;;3.70;;
75885;SDS011;64561;44.018;10.144;2023-06-19T12:59:56;7.43;;;4.30;;
75885;SDS011;64561;44.018;10.144;2023-06-19T13:02:23;6.18;;;4.10;;
75885;SDS011;64561;44.018;10.144;2023-06-19T13:04:50;5.97;;;4.07;;
75885;SDS011;64561;44.018;10.144;2023-06-19T13:07:18;7.45;;;4.32;;
75885;SDS011;64561;44.018;10.144;2023-06-19T13:09:45;6.68;;;4.05;;
75885;SDS011;64561;44.018;10.144;2023-06-19T13:12:13;6.05;;;4.07;;
75885;SDS011;64561;44.018;10.144;2023-06-19T13:14:42;5.97;;;3.65;;
75885;SDS011;64561;44.018;10.144;2023-06-19T13:17:10;6.35;;;4.68;;
75885;SDS011;64561;44.018;10.144;2023-06-19T13:19:37;8.30;;;4.57;;
75885;SDS011;64561;44.018;10.144;2023-06-19T13:22:04;6.03;;;4.00;;
75885;SDS011;64561;44.018;10.144;2023-06-19T13:24:33;7.60;;;3.67;;
75885;SDS011;64561;44.018;10.144;2023-06-19T13:27:00;5.63;;;4.20;;
75885;SDS011;64561;44.018;10.144;2023-06-19T13:29:27;5.60;;;4.35;;
75885;SDS011;64561;44.018;10.144;2023-06-19T13:31:54;6.82;;;4.22;;
75885;SDS011;64561;44.018;10.144;2023-06-19T13:34:21;6.95;;;3.90;;
75885;SDS011;64561;44.018;10.144;2023-06-19T13:36:49;4.93;;;3.83;;
75885;SDS011;64561;44.018;10.144;2023-06-19T13:39:16;4.63;;;3.83;;
75885;SDS011;64561;44.018;10.144;2023-06-19T13:41:46;5.55;;;3.78;;
75885;SDS011;64561;44.018;10.144;2023-06-19T13:44:13;5.03;;;3.50;;
75885;SDS011;64561;44.018;10.144;2023-06-19T13:46:41;5.15;;;4.05;;
75885;SDS011;64561;44.018;10.144;2023-06-19T13:49:09;6.95;;;4.88;;
75885;SDS011;64561;44.018;10.144;2023-06-19T13:51:37;5.03;;;3.70;;
75885;SDS011;64561;44.018;10.144;2023-06-19T13:54:04;5.45;;;3.60;;
75885;SDS011;64561;44.018;10.144;2023-06-19T13:56:36;4.20;;;3.30;;
75885;SDS011;64561;44.018;10.144;2023-06-19T13:59:04;6.35;;;3.72;;
75885;SDS011;64561;44.018;10.144;2023-06-19T14:01:32;5.45;;;3.90;;
75885;SDS011;64561;44.018;10.144;2023-06-19T14:03:59;4.57;;;3.33;;
75885;SDS011;64561;44.018;10.144;2023-06-19T14:06:27;5.97;;;3.95;;
75885;SDS011;64561;44.018;10.144;2023-06-19T14:08:54;5.97;;;4.15;;
75885;SDS011;64561;44.018;10.144;2023-06-19T14:11:23;5.53;;;3.85;;
75885;SDS011;64561;44.018;10.144;2023-06-19T14:13:50;5.18;;;3.47;;
75885;SDS011;64561;44.018;10.144;2023-06-19T14:16:35;5.63;;;3.83;;
75885;SDS011;64561;44.018;10.144;2023-06-19T14:19:02;6.32;;;3.70;;
75885;SDS011;64561;44.018;10.144;2023-06-19T14:21:31;4.55;;;3.80;;
75885;SDS011;64561;44.018;10.144;2023-06-19T14:23:58;5.22;;;3.70;;
75885;SDS011;64561;44.018;10.144;2023-06-19T14:26:26;5.93;;;3.92;;
75885;SDS011;64561;44.018;10.144;2023-06-19T14:28:57;5.70;;;3.85;;
75885;SDS011;64561;44.018;10.144;2023-06-19T14:31:33;6.65;;;4.32;;
75885;SDS011;64561;44.018;10.144;2023-06-19T14:34:04;6.47;;;4.00;;
75885;SDS011;64561;44.018;10.144;2023-06-19T14:36:31;6.22;;;3.88;;
75885;SDS011;64561;44.018;10.144;2023-06-19T14:38:58;5.82;;;3.60;;
75885;SDS011;64561;44.018;10.144;2023-06-19T14:41:25;5.20;;;3.75;;
75885;SDS011;64561;44.018;10.144;2023-06-19T14:43:52;4.95;;;3.72;;
75885;SDS011;64561;44.018;10.144;2023-06-19T14:46:19;4.60;;;3.55;;
75885;SDS011;64561;44.018;10.144;2023-06-19T14:49:10;6.20;;;3.80;;
75885;SDS011;64561;44.018;10.144;2023-06-19T14:51:41;4.57;;;3.70;;
75885;SDS011;64561;44.018;10.144;2023-06-19T14:54:08;5.22;;;3.47;;
75885;SDS011;64561;44.018;10.144;2023-06-19T14:56:35;6.15;;;3.80;;
75885;SDS011;64561;44.018;10.144;2023-06-19T14:59:05;4.20;;;3.67;;